createdAt,value
2024-05-09T00:00:22.412Z,807.72
2024-05-09T00:01:17.396Z,806.26
2024-05-09T00:02:16.015Z,811.14
2024-05-09T00:03:15.933Z,810.65
2024-05-09T00:04:15.936Z,812.12
2024-05-09T00:05:16.547Z,801.43
2024-05-09T00:06:16.053Z,806.74
2024-05-09T00:07:15.853Z,808.20
2024-05-09T00:08:15.880Z,809.67
2024-05-09T00:09:15.834Z,810.16
2024-05-09T00:10:25.196Z,809.18
2024-05-09T00:11:18.257Z,810.65
2024-05-09T00:12:15.942Z,807.72
2024-05-09T00:13:15.824Z,806.74
2024-05-09T00:14:15.904Z,808.69
2024-05-09T00:15:16.412Z,808.20
2024-05-09T00:16:15.791Z,813.11
2024-05-09T00:17:15.787Z,814.59
2024-05-09T00:18:15.918Z,815.58
2024-05-09T00:19:15.943Z,809.67
2024-05-09T00:20:20.531Z,811.14
2024-05-09T00:21:17.726Z,812.12
2024-05-09T00:22:15.809Z,811.63
2024-05-09T00:23:15.670Z,812.61
2024-05-09T00:24:15.649Z,818.57
2024-05-09T00:25:15.731Z,814.59
2024-05-09T00:26:15.639Z,816.58
2024-05-09T00:27:16.178Z,817.07
2024-05-09T00:28:15.618Z,813.60
2024-05-09T00:29:15.559Z,820.07
2024-05-09T00:30:24.159Z,818.57
2024-05-09T00:31:17.063Z,815.09
2024-05-09T00:32:16.243Z,822.59
2024-05-09T00:33:15.697Z,819.07
2024-05-09T00:34:15.623Z,819.57
2024-05-09T00:35:15.614Z,820.58
2024-05-09T00:36:15.592Z,818.57
2024-05-09T00:37:15.480Z,821.58
2024-05-09T00:38:16.958Z,825.12
2024-05-09T00:39:15.446Z,821.08
2024-05-09T00:40:22.875Z,822.09
2024-05-09T00:41:19.643Z,830.75
2024-05-09T00:42:15.415Z,825.12
2024-05-09T00:43:15.850Z,825.12
2024-05-09T00:44:15.468Z,827.16
2024-05-09T00:45:15.386Z,827.67
2024-05-09T00:46:15.411Z,831.78
2024-05-09T00:47:15.615Z,830.23
2024-05-09T00:48:18.544Z,828.18
2024-05-09T00:49:17.546Z,830.75
2024-05-09T00:50:19.432Z,834.89
2024-05-09T00:51:16.886Z,827.67
2024-05-09T00:52:15.353Z,831.27
2024-05-09T00:53:15.925Z,835.41
2024-05-09T00:54:15.480Z,834.37
2024-05-09T00:55:15.830Z,834.89
2024-05-09T00:56:15.300Z,830.23
2024-05-09T00:57:15.326Z,842.24
2024-05-09T00:58:15.186Z,836.98
2024-05-09T00:59:15.871Z,839.07
2024-05-09T01:00:26.119Z,822.59
2024-05-09T01:01:16.845Z,842.24
2024-05-09T01:02:15.363Z,834.89
2024-05-09T01:03:15.341Z,841.18
2024-05-09T01:04:15.177Z,836.98
2024-05-09T01:05:15.408Z,834.37
2024-05-09T01:06:15.583Z,848.10
2024-05-09T01:07:15.150Z,847.56
2024-05-09T01:08:15.228Z,844.36
2024-05-09T01:09:15.053Z,840.12
2024-05-09T01:10:21.176Z,845.42
2024-05-09T01:11:17.897Z,832.82
2024-05-09T01:12:15.233Z,847.56
2024-05-09T01:15:20.506Z,1162.19
2024-05-09T01:16:20.923Z,1069.43
2024-05-09T01:17:20.752Z,1020.56
2024-05-09T01:18:20.704Z,979.53
2024-05-09T01:19:20.568Z,966.81
2024-05-09T01:20:31.545Z,950.35
2024-05-09T01:21:22.394Z,939.69
2024-05-09T01:22:20.576Z,913.43
2024-05-09T01:23:20.415Z,907.86
2024-05-09T01:24:20.479Z,908.47
2024-05-09T01:25:20.383Z,911.56
2024-05-09T01:26:20.410Z,886.24
2024-05-09T01:27:20.763Z,898.72
2024-05-09T01:28:20.460Z,895.72
2024-05-09T01:29:20.408Z,896.32
2024-05-09T01:30:24.556Z,879.84
2024-05-09T01:31:21.874Z,883.91
2024-05-09T01:32:20.729Z,879.27
2024-05-09T01:33:20.681Z,885.66
2024-05-09T01:34:20.366Z,879.84
2024-05-09T01:35:20.281Z,874.67
2024-05-09T01:36:20.232Z,881.58
2024-05-09T01:37:20.690Z,868.44
2024-05-09T01:38:20.415Z,869.57
2024-05-09T01:39:20.330Z,882.16
2024-05-09T01:40:25.363Z,886.83
2024-05-09T01:41:21.758Z,879.84
2024-05-09T01:42:20.609Z,881.58
2024-05-09T01:43:20.246Z,877.54
2024-05-09T01:44:20.288Z,869.00
2024-05-09T01:45:20.143Z,860.63
2024-05-09T01:46:20.142Z,875.82
2024-05-09T01:47:20.272Z,865.63
2024-05-09T01:48:20.811Z,865.07
2024-05-09T01:49:21.967Z,873.53
2024-05-09T01:50:33.015Z,867.31
2024-05-09T01:51:21.760Z,879.84
2024-05-09T01:52:20.179Z,875.24
2024-05-09T01:53:20.584Z,867.31
2024-05-09T01:54:20.093Z,869.00
2024-05-09T01:55:20.202Z,868.44
2024-05-09T01:56:20.002Z,866.19
2024-05-09T01:57:20.020Z,868.44
2024-05-09T01:58:20.427Z,878.69
2024-05-09T01:59:19.990Z,871.26
2024-05-09T02:00:30.214Z,869.00
2024-05-09T02:01:21.524Z,866.75
2024-05-09T02:02:20.773Z,870.70
2024-05-09T02:03:20.095Z,869.57
2024-05-09T02:04:20.456Z,884.49
2024-05-09T02:05:20.092Z,871.83
2024-05-09T02:06:19.871Z,867.88
2024-05-09T02:07:19.892Z,871.83
2024-05-09T02:08:20.136Z,872.96
2024-05-09T02:09:20.231Z,873.53
2024-05-09T02:10:26.182Z,869.57
2024-05-09T02:11:21.421Z,872.40
2024-05-09T02:12:20.725Z,874.10
2024-05-09T02:13:19.841Z,871.83
2024-05-09T02:14:19.956Z,873.53
2024-05-09T02:15:20.247Z,875.82
2024-05-09T02:16:19.718Z,873.53
2024-05-09T02:17:19.979Z,875.82
2024-05-09T02:18:19.844Z,877.54
2024-05-09T02:19:19.868Z,876.96
2024-05-09T02:20:29.995Z,878.69
2024-05-09T02:21:21.694Z,878.69
2024-05-09T02:22:20.355Z,878.11
2024-05-09T02:23:19.838Z,875.24
2024-05-09T02:24:19.764Z,877.54
2024-05-09T02:25:19.610Z,878.69
2024-05-09T02:26:19.655Z,878.69
2024-05-09T02:27:20.051Z,875.24
2024-05-09T02:28:19.775Z,881.00
2024-05-09T02:29:19.797Z,878.11
2024-05-09T02:30:29.868Z,881.00
2024-05-09T02:31:21.199Z,883.32
2024-05-09T02:32:19.725Z,883.32
2024-05-09T02:33:20.333Z,883.32
2024-05-09T02:34:19.615Z,883.32
2024-05-09T02:35:19.666Z,883.91
2024-05-09T02:36:19.583Z,882.16
2024-05-09T02:37:19.502Z,886.83
2024-05-09T02:38:19.558Z,886.83
2024-05-09T02:39:19.881Z,883.91
2024-05-09T02:40:25.643Z,884.49
2024-05-09T02:41:21.042Z,885.07
2024-05-09T02:42:19.538Z,885.66
2024-05-09T02:43:19.448Z,884.49
2024-05-09T02:44:19.967Z,882.16
2024-05-09T02:45:19.612Z,888.01
2024-05-09T02:46:19.369Z,886.83
2024-05-09T02:47:19.559Z,886.24
2024-05-09T02:48:19.640Z,886.24
2024-05-09T02:49:19.927Z,888.59
2024-05-09T02:50:26.544Z,891.55
2024-05-09T02:51:21.291Z,888.59
2024-05-09T02:52:19.303Z,892.14
2024-05-09T02:53:19.348Z,891.55
2024-05-09T02:54:19.339Z,890.96
2024-05-09T02:55:19.764Z,891.55
2024-05-09T02:56:19.475Z,893.93
2024-05-09T02:57:19.260Z,893.33
2024-05-09T02:58:19.296Z,892.74
2024-05-09T02:59:19.376Z,893.93
2024-05-09T03:00:26.277Z,895.72
2024-05-09T03:01:20.840Z,896.32
2024-05-09T03:02:19.251Z,896.32
2024-05-09T03:03:19.478Z,891.55
2024-05-09T03:04:19.239Z,897.52
2024-05-09T03:05:19.330Z,900.54
2024-05-09T03:06:19.594Z,895.72
2024-05-09T03:08:21.681Z,1112.03
2024-05-09T03:09:21.646Z,1049.33
2024-05-09T03:10:25.679Z,1012.85
2024-05-09T03:11:23.533Z,993.33
2024-05-09T03:12:21.662Z,979.53
2024-05-09T03:13:21.540Z,964.03
2024-05-09T03:14:21.640Z,953.74
2024-05-09T03:15:21.661Z,951.03
2024-05-09T03:16:22.005Z,943.00
2024-05-09T03:17:21.624Z,941.01
2024-05-09T03:18:21.718Z,935.75
2024-05-09T03:19:21.763Z,933.80
2024-05-09T03:20:27.327Z,933.80
2024-05-09T03:21:23.499Z,929.91
2024-05-09T03:22:21.440Z,933.15
2024-05-09T03:23:21.458Z,923.50
2024-05-09T03:24:21.592Z,922.86
2024-05-09T03:25:21.389Z,927.34
2024-05-09T03:26:21.875Z,919.70
2024-05-09T03:27:21.375Z,919.70
2024-05-09T03:28:21.361Z,920.96
2024-05-09T03:29:22.097Z,923.50
2024-05-09T03:30:29.635Z,922.86
2024-05-09T03:31:22.829Z,917.18
2024-05-09T03:32:21.827Z,920.96
2024-05-09T03:33:21.831Z,922.23
2024-05-09T03:34:21.354Z,917.81
2024-05-09T03:35:21.410Z,920.96
2024-05-09T03:36:21.318Z,918.44
2024-05-09T03:37:21.723Z,916.55
2024-05-09T03:38:21.350Z,919.70
2024-05-09T03:39:21.236Z,919.70
2024-05-09T03:40:26.324Z,917.81
2024-05-09T03:41:22.806Z,919.70
2024-05-09T03:42:21.245Z,927.34
2024-05-09T03:43:21.564Z,915.30
2024-05-09T03:44:21.312Z,924.78
2024-05-09T03:45:21.144Z,923.50
2024-05-09T03:46:21.209Z,920.96
2024-05-09T03:47:21.379Z,919.70
2024-05-09T03:48:21.796Z,925.41
2024-05-09T03:49:21.160Z,921.59
2024-05-09T03:50:26.439Z,922.86
2024-05-09T03:51:22.679Z,919.70
2024-05-09T03:52:21.061Z,922.86
2024-05-09T03:53:22.164Z,921.59
2024-05-09T03:54:21.045Z,924.78
2024-05-09T03:55:21.061Z,923.50
2024-05-09T03:56:21.042Z,920.96
2024-05-09T03:57:21.000Z,922.23
2024-05-09T03:58:21.366Z,922.23
2024-05-09T03:59:20.956Z,922.23
2024-05-09T04:00:30.498Z,923.50
2024-05-09T04:01:22.508Z,921.59
2024-05-09T04:02:21.066Z,924.78
2024-05-09T04:03:21.081Z,919.70
2024-05-09T04:04:21.372Z,923.50
2024-05-09T04:05:20.902Z,924.78
2024-05-09T04:06:20.894Z,922.23
2024-05-09T04:07:20.841Z,927.34
2024-05-09T04:08:20.888Z,928.62
2024-05-09T04:09:21.281Z,926.69
2024-05-09T04:10:27.800Z,927.98
2024-05-09T04:11:22.466Z,923.50
2024-05-09T04:12:20.852Z,927.34
2024-05-09T04:13:20.763Z,927.98
2024-05-09T04:14:21.232Z,933.15
2024-05-09T04:15:21.503Z,926.05
2024-05-09T04:16:20.888Z,923.50
2024-05-09T04:17:20.773Z,920.96
2024-05-09T04:18:20.862Z,926.05
2024-05-09T04:19:20.814Z,925.41
2024-05-09T04:20:32.341Z,923.50
2024-05-09T04:21:22.255Z,926.69
2024-05-09T04:22:20.672Z,927.98
2024-05-09T04:23:20.776Z,929.91
2024-05-09T04:24:20.634Z,929.91
2024-05-09T04:25:20.628Z,927.98
2024-05-09T04:26:21.085Z,927.34
2024-05-09T04:27:20.636Z,927.98
2024-05-09T04:28:20.598Z,927.34
2024-05-09T04:29:20.696Z,929.91
2024-05-09T04:30:26.502Z,928.62
2024-05-09T04:31:22.464Z,933.80
2024-05-09T04:32:20.703Z,927.98
2024-05-09T04:33:20.924Z,927.34
2024-05-09T04:34:20.629Z,924.78
2024-05-09T04:35:20.565Z,925.41
2024-05-09T04:36:20.893Z,932.50
2024-05-09T04:37:20.477Z,929.26
2024-05-09T04:38:20.612Z,932.50
2024-05-09T04:39:20.436Z,930.55
2024-05-09T04:40:28.243Z,932.50
2024-05-09T04:41:22.363Z,933.80
2024-05-09T04:42:20.416Z,933.80
2024-05-09T04:43:20.452Z,929.91
2024-05-09T04:44:20.438Z,933.80
2024-05-09T04:45:20.383Z,933.15
2024-05-09T04:46:20.765Z,928.62
2024-05-09T04:47:20.449Z,931.20
2024-05-09T04:48:20.459Z,935.10
2024-05-09T04:49:20.428Z,928.62
2024-05-09T04:50:29.350Z,933.15
2024-05-09T04:51:21.809Z,926.05
2024-05-09T04:52:20.679Z,926.69
2024-05-09T04:53:20.494Z,935.10
2024-05-09T04:55:20.223Z,927.34
2024-05-09T04:56:20.268Z,933.80
2024-05-09T04:57:20.626Z,926.05
2024-05-09T04:58:23.841Z,929.91
2024-05-09T04:59:20.237Z,924.78
2024-05-09T05:00:28.488Z,928.62
2024-05-09T05:01:21.686Z,929.91
2024-05-09T05:02:20.595Z,927.34
2024-05-09T05:03:20.374Z,929.91
2024-05-09T05:04:20.245Z,931.85
2024-05-09T05:05:20.161Z,931.20
2024-05-09T05:06:20.080Z,929.91
2024-05-09T05:07:20.068Z,927.34
2024-05-09T05:08:20.599Z,926.05
2024-05-09T05:09:20.061Z,924.78
2024-05-09T05:10:25.467Z,931.20
2024-05-09T05:11:21.588Z,926.69
2024-05-09T05:12:20.109Z,927.34
2024-05-09T05:13:21.812Z,927.34
2024-05-09T05:14:20.022Z,927.98
2024-05-09T05:15:19.987Z,920.96
2024-05-09T05:16:19.996Z,923.50
2024-05-09T05:17:20.029Z,931.20
2024-05-09T05:18:20.488Z,926.69
2024-05-09T05:19:20.062Z,923.50
2024-05-09T05:20:27.404Z,929.91
2024-05-09T05:21:21.510Z,924.78
2024-05-09T05:22:19.939Z,927.34
2024-05-09T05:23:20.069Z,922.86
2024-05-09T05:24:20.399Z,926.05
2024-05-09T05:25:19.869Z,926.05
2024-05-09T05:26:19.870Z,922.86
2024-05-09T05:27:19.810Z,923.50
2024-05-09T05:28:19.818Z,926.05
2024-05-09T05:29:20.916Z,924.78
2024-05-09T05:30:25.213Z,924.14
2024-05-09T05:31:21.357Z,926.05
2024-05-09T05:32:20.000Z,924.14
2024-05-09T05:33:20.290Z,922.86
2024-05-09T05:34:20.189Z,920.96
2024-05-09T05:35:19.728Z,920.96
2024-05-09T05:36:19.722Z,923.50
2024-05-09T05:37:19.709Z,919.07
2024-05-09T05:38:23.728Z,922.86
2024-05-09T05:39:21.212Z,924.14
2024-05-09T05:40:28.188Z,924.14
2024-05-09T05:41:21.202Z,920.96
2024-05-09T05:42:19.614Z,920.96
2024-05-09T05:43:19.616Z,926.05
2024-05-09T05:44:19.659Z,924.78
2024-05-09T05:45:19.692Z,923.50
2024-05-09T05:46:19.969Z,922.86
2024-05-09T05:47:19.705Z,919.70
2024-05-09T05:48:19.903Z,920.33
2024-05-09T05:49:19.732Z,921.59
2024-05-09T05:50:27.388Z,922.23
2024-05-09T05:51:21.528Z,919.70
2024-05-09T05:52:19.503Z,921.59
2024-05-09T05:53:19.664Z,921.59
2024-05-09T05:54:19.595Z,916.55
2024-05-09T05:55:19.467Z,920.33
2024-05-09T05:56:19.474Z,918.44
2024-05-09T05:57:19.872Z,920.33
2024-05-09T05:58:19.434Z,920.33
2024-05-09T05:59:19.434Z,919.07
2024-05-09T06:00:29.200Z,916.55
2024-05-09T06:01:20.990Z,917.81
2024-05-09T06:02:19.831Z,917.18
2024-05-09T06:03:19.440Z,915.30
2024-05-09T06:04:19.361Z,919.70
2024-05-09T06:05:19.417Z,916.55
2024-05-09T06:06:19.327Z,916.55
2024-05-09T06:07:19.715Z,912.18
2024-05-09T06:08:19.321Z,915.93
2024-05-09T06:09:19.282Z,912.81
2024-05-09T06:10:25.405Z,916.55
2024-05-09T06:11:20.910Z,918.44
2024-05-09T06:12:19.392Z,914.05
2024-05-09T06:13:19.628Z,915.93
2024-05-09T06:14:19.248Z,910.95
2024-05-09T06:15:19.226Z,917.18
2024-05-09T06:16:19.202Z,912.18
2024-05-09T06:17:19.341Z,907.24
2024-05-09T06:18:19.881Z,910.95
2024-05-09T06:19:19.374Z,906.63
2024-05-09T06:20:24.041Z,903.57
2024-05-09T06:21:20.773Z,904.79
2024-05-09T06:22:19.152Z,907.24
2024-05-09T06:23:19.557Z,906.02
2024-05-09T06:24:19.081Z,904.79
2024-05-09T06:25:19.062Z,906.02
2024-05-09T06:26:19.172Z,907.24
2024-05-09T06:27:19.056Z,904.79
2024-05-09T06:28:19.113Z,903.57
2024-05-09T06:29:19.462Z,906.02
2024-05-09T06:30:26.266Z,901.14
2024-05-09T06:31:20.518Z,901.75
2024-05-09T06:32:19.130Z,899.33
2024-05-09T06:33:19.265Z,907.86
2024-05-09T06:34:19.154Z,911.56
2024-05-09T06:35:19.461Z,899.93
2024-05-09T06:36:18.982Z,898.72
2024-05-09T06:37:18.916Z,893.93
2024-05-09T06:38:18.965Z,910.33
2024-05-09T06:39:18.868Z,891.55
2024-05-09T06:40:25.475Z,891.55
2024-05-09T06:41:20.880Z,890.96
2024-05-09T06:42:18.886Z,892.14
2024-05-09T06:43:19.795Z,905.41
2024-05-09T06:44:18.884Z,896.32
2024-05-09T06:45:18.799Z,892.14
2024-05-09T06:46:19.246Z,901.75
2024-05-09T06:47:18.961Z,888.01
2024-05-09T06:48:19.489Z,901.14
2024-05-09T06:49:18.836Z,897.52
2024-05-09T06:50:23.952Z,898.12
2024-05-09T06:51:20.239Z,890.96
2024-05-09T06:52:19.159Z,892.74
2024-05-09T06:53:18.753Z,889.18
2024-05-09T06:54:18.710Z,886.83
2024-05-09T06:55:18.763Z,882.16
2024-05-09T06:56:18.707Z,888.01
2024-05-09T06:57:18.645Z,891.55
2024-05-09T06:58:19.065Z,891.55
2024-05-09T06:59:18.715Z,887.42
2024-05-09T07:00:27.145Z,889.18
2024-05-09T07:01:20.099Z,883.32
2024-05-09T07:02:18.679Z,882.16
2024-05-09T07:03:19.591Z,879.84
2024-05-09T07:04:19.111Z,879.84
2024-05-09T07:05:18.645Z,879.84
2024-05-09T07:06:18.616Z,876.96
2024-05-09T07:07:18.556Z,876.96
2024-05-09T07:08:18.926Z,872.96
2024-05-09T07:09:18.522Z,875.24
2024-05-09T07:10:25.763Z,879.27
2024-05-09T07:11:20.064Z,867.88
2024-05-09T07:12:18.569Z,867.31
2024-05-09T07:13:18.472Z,871.83
2024-05-09T07:14:18.586Z,869.00
2024-05-09T07:15:18.442Z,865.63
2024-05-09T07:16:18.865Z,871.83
2024-05-09T07:17:18.564Z,866.75
2024-05-09T07:18:19.320Z,869.57
2024-05-09T07:19:18.430Z,868.44
2024-05-09T07:20:23.740Z,860.63
2024-05-09T07:21:20.344Z,848.10
2024-05-09T07:22:18.324Z,862.85
2024-05-09T07:23:18.611Z,849.71
2024-05-09T07:24:18.309Z,856.23
2024-05-09T07:25:18.277Z,852.96
2024-05-09T07:26:18.404Z,855.68
2024-05-09T07:27:18.672Z,854.05
2024-05-09T07:28:18.428Z,852.96
2024-05-09T07:29:18.322Z,854.05
2024-05-09T07:30:23.574Z,849.71
2024-05-09T07:31:19.711Z,843.83
2024-05-09T07:32:18.349Z,846.49
2024-05-09T07:33:19.559Z,843.30
2024-05-09T07:34:18.322Z,841.71
2024-05-09T07:35:18.252Z,840.65
2024-05-09T07:36:18.160Z,840.12
2024-05-09T07:37:18.139Z,840.12
2024-05-09T07:38:18.211Z,834.37
2024-05-09T07:39:18.557Z,841.18
2024-05-09T07:40:28.174Z,839.07
2024-05-09T07:41:19.665Z,836.98
2024-05-09T07:42:18.046Z,830.75
2024-05-09T07:43:18.052Z,829.72
2024-05-09T07:44:18.135Z,828.70
2024-05-09T07:45:40.235Z,833.85
2024-05-09T07:47:14.490Z,825.63
2024-05-09T07:48:29.055Z,823.60
2024-05-09T07:51:31.307Z,821.58
2024-05-09T07:53:30.039Z,814.59
2024-05-09T07:53:38.370Z,814.09
2024-05-09T07:54:19.156Z,809.67
2024-05-09T07:55:18.423Z,807.72
2024-05-09T07:56:19.120Z,809.67
2024-05-09T07:57:18.068Z,812.61
2024-05-09T07:58:17.854Z,805.29
2024-05-09T07:59:17.926Z,801.43
2024-05-09T08:00:23.696Z,801.91
2024-05-09T08:01:20.299Z,798.57
2024-05-09T08:02:17.985Z,797.14
2024-05-09T08:03:17.918Z,796.20
2024-05-09T08:04:17.884Z,795.25
2024-05-09T08:05:17.844Z,794.31
2024-05-09T08:06:17.846Z,793.37
2024-05-09T08:07:18.297Z,788.23
2024-05-09T08:08:17.725Z,787.77
2024-05-09T08:09:21.103Z,787.77
2024-05-09T08:10:22.161Z,783.62
2024-05-09T08:11:19.262Z,783.17
2024-05-09T08:12:18.100Z,782.71
2024-05-09T08:13:17.771Z,781.80
2024-05-09T08:14:17.698Z,779.07
2024-05-09T08:15:17.644Z,776.81
2024-05-09T08:16:17.698Z,774.12
2024-05-09T08:17:18.059Z,772.33
2024-05-09T08:18:17.890Z,770.11
2024-05-09T08:19:17.754Z,768.35
2024-05-09T08:20:26.619Z,767.03
2024-05-09T08:21:19.086Z,763.53
2024-05-09T08:22:18.006Z,760.93
2024-05-09T08:23:17.515Z,757.49
2024-05-09T08:24:17.546Z,755.78
2024-05-09T08:25:17.671Z,756.63
2024-05-09T08:26:17.535Z,760.50
2024-05-09T08:27:17.882Z,750.28
2024-05-09T08:28:17.624Z,750.70
2024-05-09T08:29:17.550Z,754.08
2024-05-09T08:30:24.712Z,750.70
2024-05-09T08:31:19.072Z,750.37
2024-05-09T08:32:17.447Z,746.93
2024-05-09T08:33:17.988Z,742.88
2024-05-09T08:34:17.582Z,746.19
2024-05-09T08:35:17.448Z,747.85
2024-05-09T08:36:17.398Z,738.78
2024-05-09T08:37:22.381Z,742.88
2024-05-09T08:38:18.850Z,745.36
2024-05-09T08:39:17.756Z,735.53
2024-05-09T08:40:24.061Z,738.78
2024-05-09T08:41:18.776Z,737.96
2024-05-09T08:42:17.284Z,735.53
2024-05-09T08:43:17.402Z,734.72
2024-05-09T08:44:17.255Z,733.11
2024-05-09T08:45:17.734Z,729.12
2024-05-09T08:46:17.391Z,728.32
2024-05-09T08:47:17.253Z,725.17
2024-05-09T08:48:17.406Z,733.11
2024-05-09T08:49:17.336Z,722.82
2024-05-09T08:50:28.407Z,720.48
2024-05-09T08:51:18.764Z,723.60
2024-05-09T08:52:17.202Z,720.48
2024-05-09T08:53:17.167Z,718.94
2024-05-09T08:54:17.117Z,716.63
2024-05-09T08:55:17.528Z,717.40
2024-05-09T08:56:17.130Z,715.86
2024-05-09T08:57:17.116Z,710.54
2024-05-09T08:58:17.360Z,708.29
2024-05-09T08:59:17.095Z,709.04
2024-05-09T09:01:17.192Z,706.79
2024-05-09T09:02:17.212Z,709.79
2024-05-09T09:03:17.047Z,701.60
2024-05-09T09:04:17.222Z,703.82
2024-05-09T09:05:17.253Z,699.41
2024-05-09T09:06:17.407Z,700.87
2024-05-09T09:07:16.995Z,697.95
2024-05-09T09:09:19.657Z,876.96
2024-05-09T09:10:29.010Z,808.20
2024-05-09T09:11:20.999Z,780.89
2024-05-09T09:12:19.883Z,759.21
2024-05-09T09:13:19.509Z,749.53
2024-05-09T09:14:19.729Z,733.11
2024-05-09T09:15:19.427Z,737.15
2024-05-09T09:16:19.625Z,721.26
2024-05-09T09:17:19.389Z,720.48
2024-05-09T09:18:19.901Z,711.30
2024-05-09T09:19:19.536Z,700.87
2024-05-09T09:20:26.262Z,701.60
2024-05-09T09:21:20.860Z,699.41
2024-05-09T09:22:19.349Z,698.67
2024-05-09T09:23:19.691Z,691.46
2024-05-09T09:24:19.344Z,689.32
2024-05-09T09:25:19.320Z,687.20
2024-05-09T09:26:19.321Z,681.60
2024-05-09T09:27:19.371Z,685.09
2024-05-09T09:28:19.294Z,680.91
2024-05-09T09:29:19.675Z,674.73
2024-05-09T09:30:31.515Z,672.69
2024-05-09T09:31:20.704Z,672.69
2024-05-09T09:32:19.337Z,670.00
2024-05-09T09:33:19.267Z,665.34
2024-05-09T09:34:19.961Z,664.68
2024-05-09T09:35:19.144Z,660.74
2024-05-09T09:36:19.147Z,664.02
2024-05-09T09:37:19.294Z,658.14
2024-05-09T09:38:19.094Z,653.64
2024-05-09T09:39:19.096Z,655.56
2024-05-09T09:40:22.325Z,650.47
2024-05-09T09:41:20.584Z,653.01
2024-05-09T09:42:19.157Z,648.58
2024-05-09T09:43:19.300Z,644.83
2024-05-09T09:44:19.073Z,646.07
2024-05-09T09:45:19.415Z,638.67
2024-05-09T09:46:19.081Z,638.67
2024-05-09T09:47:19.198Z,638.67
2024-05-09T09:48:19.084Z,639.90
2024-05-09T09:49:19.155Z,633.24
2024-05-09T09:50:27.060Z,631.44
2024-05-09T09:51:21.713Z,641.73
2024-05-09T09:52:19.001Z,629.66
2024-05-09T09:53:19.006Z,630.85
2024-05-09T09:54:18.905Z,632.64
2024-05-09T09:55:19.064Z,627.30
2024-05-09T09:56:18.877Z,627.30
2024-05-09T09:57:19.283Z,622.63
2024-05-09T09:58:19.021Z,618.60
2024-05-09T09:59:19.028Z,619.18
2024-05-09T10:00:24.535Z,621.48
2024-05-09T10:01:20.458Z,621.48
2024-05-09T10:02:19.498Z,610.15
2024-05-09T10:03:19.163Z,610.15
2024-05-09T10:04:19.222Z,611.82
2024-05-09T10:05:18.835Z,609.04
2024-05-09T10:06:19.047Z,607.93
2024-05-09T10:07:19.198Z,602.46
2024-05-09T10:08:18.725Z,600.30
2024-05-09T10:09:18.738Z,597.62
2024-05-09T10:10:26.923Z,598.15
2024-05-09T10:11:20.298Z,596.02
2024-05-09T10:12:18.918Z,594.43
2024-05-09T10:13:19.317Z,591.28
2024-05-09T10:14:18.652Z,587.65
2024-05-09T10:15:18.844Z,586.62
2024-05-09T10:16:18.777Z,589.20
2024-05-09T10:17:18.672Z,584.57
2024-05-09T10:18:19.153Z,582.53
2024-05-09T10:19:18.793Z,579.51
2024-05-09T10:20:22.104Z,576.51
2024-05-09T10:21:20.172Z,579.01
2024-05-09T10:22:18.694Z,572.57
2024-05-09T10:23:18.954Z,572.57
2024-05-09T10:24:18.582Z,569.16
2024-05-09T10:25:18.575Z,572.57
2024-05-09T10:26:18.573Z,565.31
2024-05-09T10:27:18.609Z,566.27
2024-05-09T10:28:19.007Z,560.58
2024-05-09T10:29:18.565Z,561.99
2024-05-09T10:30:25.865Z,561.05
2024-05-09T10:31:20.078Z,558.24
2024-05-09T10:32:18.522Z,556.38
2024-05-09T10:33:18.520Z,557.31
2024-05-09T10:34:19.195Z,551.80
2024-05-09T10:35:18.433Z,550.44
2024-05-09T10:36:18.448Z,549.98
2024-05-09T10:37:19.137Z,545.95
2024-05-09T10:38:18.608Z,544.61
2024-05-09T10:39:18.712Z,539.35
2024-05-09T10:40:25.830Z,538.05
2024-05-09T10:41:19.895Z,538.91
2024-05-09T10:42:18.277Z,533.33
2024-05-09T10:43:18.570Z,532.48
2024-05-09T10:44:18.904Z,532.48
2024-05-09T10:45:18.246Z,529.95
2024-05-09T10:46:18.612Z,524.14
2024-05-09T10:47:18.302Z,524.97
2024-05-09T10:48:19.144Z,520.88
2024-05-09T10:49:18.357Z,517.66
2024-05-09T10:50:25.531Z,509.77
2024-05-09T10:51:19.800Z,505.54
2024-05-09T10:52:18.299Z,508.22
2024-05-09T10:53:18.289Z,497.64
2024-05-09T10:54:18.229Z,495.80
2024-05-09T10:55:18.711Z,493.61
2024-05-09T10:56:18.152Z,487.49
2024-05-09T10:57:18.145Z,481.19
2024-05-09T10:58:18.361Z,477.75
2024-05-09T10:59:18.124Z,472.02
2024-05-09T11:00:26.952Z,470.04
2024-05-09T11:01:20.097Z,460.65
2024-05-09T11:02:18.153Z,456.57
2024-05-09T11:03:18.141Z,450.73
2024-05-09T11:04:18.199Z,445.92
2024-05-09T11:05:19.510Z,439.48
2024-05-09T11:06:18.040Z,434.91
2024-05-09T11:07:18.531Z,428.51
2024-05-09T11:08:18.064Z,421.49
2024-05-09T11:09:18.015Z,417.55
2024-05-09T11:10:24.960Z,413.68
2024-05-09T11:11:19.602Z,409.38
2024-05-09T11:12:20.020Z,402.73
2024-05-09T11:13:17.976Z,401.28
2024-05-09T11:14:17.973Z,394.42
2024-05-09T11:15:18.044Z,388.92
2024-05-09T11:16:18.074Z,384.45
2024-05-09T11:17:18.365Z,379.22
2024-05-09T11:18:19.271Z,372.73
2024-05-09T11:19:18.022Z,367.74
2024-05-09T11:20:26.423Z,362.08
2024-05-09T11:21:19.304Z,356.97
2024-05-09T11:22:17.976Z,353.15
2024-05-09T11:23:18.227Z,347.56
2024-05-09T11:24:17.842Z,345.37
2024-05-09T11:25:17.892Z,341.79
2024-05-09T11:26:17.801Z,338.97
2024-05-09T11:27:17.900Z,334.83
2024-05-09T11:28:17.849Z,331.47
2024-05-09T11:29:19.572Z,327.18
2024-05-09T11:30:24.312Z,323.65
2024-05-09T11:31:19.507Z,321.75
2024-05-09T11:32:17.707Z,318.33
2024-05-09T11:33:17.978Z,312.89
2024-05-09T11:34:17.693Z,311.41
2024-05-09T11:35:18.261Z,308.78
2024-05-09T11:36:17.756Z,305.63
2024-05-09T11:37:17.965Z,303.38
2024-05-09T11:38:17.749Z,299.79
2024-05-09T11:39:17.681Z,298.43
2024-05-09T11:40:25.191Z,294.69
2024-05-09T11:41:19.520Z,293.11
2024-05-09T11:42:17.563Z,290.27
2024-05-09T11:43:17.689Z,287.99
2024-05-09T11:44:17.669Z,286.98
2024-05-09T11:45:18.328Z,284.51
2024-05-09T11:46:18.078Z,281.59
2024-05-09T11:47:17.620Z,280.39
2024-05-09T11:48:17.667Z,278.73
2024-05-09T11:49:17.746Z,275.46
2024-05-09T11:50:26.779Z,273.40
2024-05-09T11:51:19.153Z,271.15
2024-05-09T11:52:17.887Z,269.60
2024-05-09T11:53:17.503Z,267.63
2024-05-09T11:54:17.536Z,264.83
2024-05-09T11:55:17.916Z,261.88
2024-05-09T11:56:17.457Z,259.61
2024-05-09T11:57:17.461Z,258.39
2024-05-09T11:58:18.718Z,254.60
2024-05-09T11:59:17.353Z,256.18
2024-05-09T12:00:25.152Z,252.06
2024-05-09T12:01:19.386Z,247.70
2024-05-09T12:02:17.439Z,245.85
2024-05-09T12:03:17.357Z,243.13
2024-05-09T12:05:20.942Z,297.89
2024-05-09T12:06:20.733Z,277.79
2024-05-09T12:07:20.689Z,266.98
2024-05-09T12:08:20.786Z,257.78
2024-05-09T12:09:20.782Z,249.39
2024-05-09T12:10:26.063Z,242.59
2024-05-09T12:11:22.116Z,238.72
2024-05-09T12:12:20.589Z,233.48
2024-05-09T12:13:20.696Z,228.30
2024-05-09T12:14:21.752Z,226.26
2024-05-09T12:15:20.509Z,222.59
2024-05-09T12:16:21.714Z,219.33
2024-05-09T12:17:20.809Z,215.03
2024-05-09T12:18:21.287Z,213.64
2024-05-09T12:19:21.471Z,209.69
2024-05-09T12:20:28.558Z,208.63
2024-05-09T12:21:21.936Z,206.15
2024-05-09T12:22:21.107Z,204.61
2024-05-09T12:23:20.633Z,201.36
2024-05-09T12:24:20.523Z,199.41
2024-05-09T12:25:20.554Z,197.97
2024-05-09T12:26:20.405Z,195.74
2024-05-09T12:27:20.412Z,193.78
2024-05-09T12:28:21.153Z,192.53
2024-05-09T12:29:20.401Z,190.86
2024-05-09T12:30:32.258Z,189.00
2024-05-09T12:31:21.918Z,187.49
2024-05-09T12:32:20.441Z,185.80
2024-05-09T12:33:20.465Z,185.70
2024-05-09T12:34:20.777Z,184.27
2024-05-09T12:35:20.367Z,182.26
2024-05-09T12:36:20.418Z,179.91
2024-05-09T12:37:20.360Z,179.14
2024-05-09T12:38:20.293Z,176.87